This is the latest recevied weather packets stored in our database for station/object OM8AKX-4. If no packets are shown the sender has not sent any weather packets the latest 10 day(s).
| Time | Temp. | Humidity | Pressure | Rain* | Wind** | Luminosity | Snow |
|---|---|---|---|---|---|---|---|
| 1777883225 | 12.22° C | 42% | 879.7 hPa | - | - | - | - |
| 1777882325 | 12.22° C | 43% | 879.5 hPa | - | - | - | - |
| 1777881425 | 12.22° C | 43% | 879.4 hPa | - | - | - | - |
| 1777880525 | 11.67° C | 44% | 879.2 hPa | - | - | - | - |
| 1777879625 | 11.67° C | 43% | 879.2 hPa | - | - | - | - |
| 1777878724 | 11.11° C | 43% | 879 hPa | - | - | - | - |
| 1777877824 | 11.11° C | 42% | 879 hPa | - | - | - | - |
| 1777876924 | 11.11° C | 42% | 878.8 hPa | - | - | - | - |
| 1777876024 | 11.67° C | 41% | 878.8 hPa | - | - | - | - |
| 1777875124 | 11.67° C | 40% | 878.7 hPa | - | - | - | - |
| 1777874224 | 12.22° C | 40% | 878.7 hPa | - | - | - | - |
| 1777873324 | 13.33° C | 37% | 878.6 hPa | - | - | - | - |
| 1777872424 | 15.56° C | 33% | 878.5 hPa | - | - | - | - |
| 1777871524 | 16.11° C | 33% | 878.5 hPa | - | - | - | - |
| 1777870624 | 16.67° C | 32% | 878.5 hPa | - | - | - | - |
| 1777869724 | 16.11° C | 33% | 878.5 hPa | - | - | - | - |
| 1777868824 | 16.11° C | 32% | 878.4 hPa | - | - | - | - |
| 1777867924 | 17.22° C | 30% | 878.4 hPa | - | - | - | - |
| 1777867023 | 20.56° C | 26% | 878.2 hPa | - | - | - | - |
| 1777866123 | 14.44° C | 34% | 878.3 hPa | - | - | - | - |
| 1777865223 | 12.78° C | 36% | 878.3 hPa | - | - | - | - |
| 1777864323 | 8.33° C | 44% | 878.5 hPa | - | - | - | - |
| 1777863423 | 7.78° C | 46% | 878.5 hPa | - | - | - | - |
| 1777862523 | 7.78° C | 45% | 878.6 hPa | - | - | - | - |
| 1777861623 | 8.33° C | 45% | 878.7 hPa | - | - | - | - |
* Rain since midnight (hover to see other rain measurements)
** Current wind speed in m/s (hover to see current wind gust speed)